Time;durP1;ratioP1;P1;durP2;ratioP2;P2;SDS_P1;SDS_P2;PMS_P1;PMS_P2;Temp;Humidity;BMP_temperature;BMP_pressure;BME280_temperature;BME280_humidity;BME280_pressure;Samples;Min_cycle;Max_cycle;Signal;HPM_P1;HPM_P2
2023/07/07 00:00:09;;;;;;;25.80;5.63;;;27.40;46.80;;;;;;5029497;28;20196;-68
2023/07/07 00:02:36;;;;;;;29.97;6.27;;;27.40;46.80;;;;;;5029072;28;20331;-69
2023/07/07 00:05:03;;;;;;;92.63;11.60;;;27.40;46.90;;;;;;5017349;28;20198;-70
2023/07/07 00:07:31;;;;;;;37.43;6.63;;;27.40;46.90;;;;;;5038098;28;20204;-65
2023/07/07 00:09:58;;;;;;;25.70;5.60;;;27.40;46.90;;;;;;5045158;28;20204;-71
2023/07/07 00:12:26;;;;;;;22.50;5.53;;;27.40;46.90;;;;;;5046066;28;20682;-69
2023/07/07 00:14:53;;;;;;;23.20;5.67;;;27.40;46.90;;;;;;5047240;28;20215;-66
2023/07/07 00:17:19;;;;;;;22.20;5.40;;;27.40;46.90;;;;;;5036977;28;20197;-68
2023/07/07 00:19:47;;;;;;;28.37;6.13;;;27.40;46.90;;;;;;5012357;28;20668;-69
2023/07/07 00:22:14;;;;;;;23.50;5.83;;;27.40;46.90;;;;;;5017112;28;20245;-66
2023/07/07 00:24:41;;;;;;;23.83;5.60;;;27.40;46.90;;;;;;5021201;28;20197;-69
2023/07/07 00:27:08;;;;;;;20.47;5.30;;;27.40;46.90;;;;;;5043045;28;20247;-69
2023/07/07 00:29:36;;;;;;;24.23;5.70;;;27.40;47.00;;;;;;5048743;28;20208;-70
2023/07/07 00:32:03;;;;;;;33.90;6.40;;;27.30;46.90;;;;;;5047750;28;20192;-66
2023/07/07 00:34:30;;;;;;;26.57;5.77;;;27.30;46.90;;;;;;5041859;28;20563;-71
2023/07/07 00:36:57;;;;;;;26.47;6.03;;;27.30;46.90;;;;;;5040007;28;20204;-65
2023/07/07 00:39:24;;;;;;;20.03;5.30;;;27.30;46.90;;;;;;5039528;28;20204;-65
2023/07/07 00:41:52;;;;;;;23.53;5.37;;;27.30;46.90;;;;;;5022689;28;20285;-65
2023/07/07 00:44:19;;;;;;;26.00;5.57;;;27.30;46.90;;;;;;5044097;28;20235;-66
2023/07/07 00:46:47;;;;;;;26.77;5.83;;;27.30;46.90;;;;;;5027895;28;20203;-65
2023/07/07 00:49:18;;;;;;;21.80;5.43;;;27.30;46.90;;;;;;5028212;28;20216;-66
2023/07/07 00:51:49;;;;;;;24.10;5.57;;;27.30;46.90;;;;;;5018558;28;20638;-65
2023/07/07 00:54:20;;;;;;;22.53;5.70;;;27.30;47.00;;;;;;5008070;28;20205;-65
2023/07/07 00:56:50;;;;;;;24.50;5.93;;;27.30;47.00;;;;;;5008364;28;20229;-66
2023/07/07 00:59:19;;;;;;;29.33;5.87;;;27.30;47.00;;;;;;5024944;28;20656;-65
2023/07/07 01:01:52;;;;;;;24.20;5.57;;;27.20;46.90;;;;;;5027930;28;20201;-72
2023/07/07 01:04:19;;;;;;;20.53;5.40;;;27.30;47.00;;;;;;5007825;28;20228;-66
2023/07/07 01:06:50;;;;;;;21.97;5.83;;;27.20;46.90;;;;;;5008253;28;20200;-69
2023/07/07 01:09:17;;;;;;;21.10;5.53;;;27.20;46.90;;;;;;5034752;28;20215;-69
2023/07/07 01:11:46;;;;;;;54.33;8.17;;;27.20;46.90;;;;;;5045554;28;20207;-65
2023/07/07 01:14:18;;;;;;;25.40;5.90;;;27.20;46.90;;;;;;5045839;28;20703;-68
2023/07/07 01:16:58;;;;;;;21.57;5.70;;;27.20;47.00;;;;;;5038723;28;20208;-66
2023/07/07 01:19:46;;;;;;;33.60;6.63;;;27.20;47.00;;;;;;5045824;28;20214;-66
2023/07/07 01:22:47;;;;;;;43.27;7.57;;;27.20;47.00;;;;;;5015568;28;20251;-67
2023/07/07 01:25:28;;;;;;;25.87;5.87;;;27.20;47.00;;;;;;5043884;28;20653;-66
2023/07/07 01:28:25;;;;;;;24.53;5.80;;;27.20;47.00;;;;;;5050330;28;20195;-65
2023/07/07 01:30:56;;;;;;;23.17;5.70;;;27.20;47.10;;;;;;5043980;28;20204;-66
2023/07/07 01:33:26;;;;;;;27.10;6.23;;;27.20;47.10;;;;;;5050202;28;20205;-66
2023/07/07 01:35:53;;;;;;;40.67;7.50;;;27.10;47.00;;;;;;5048990;28;20204;-68
2023/07/07 01:38:33;;;;;;;28.50;6.10;;;27.10;47.00;;;;;;5049877;28;20208;-65
2023/07/07 01:41:14;;;;;;;32.80;6.40;;;27.10;47.10;;;;;;5035085;28;20193;-68
2023/07/07 01:43:46;;;;;;;20.97;5.27;;;27.10;47.10;;;;;;5030388;28;20241;-65
2023/07/07 01:46:23;;;;;;;21.40;5.33;;;27.10;47.10;;;;;;5047118;28;20319;-65
2023/07/07 01:48:56;;;;;;;25.60;5.87;;;27.10;47.10;;;;;;5046146;28;20204;-65
2023/07/07 01:51:28;;;;;;;25.87;6.00;;;27.10;47.10;;;;;;5025923;28;20201;-65
2023/07/07 01:53:58;;;;;;;29.00;6.20;;;27.10;47.10;;;;;;5048536;28;20833;-65
2023/07/07 01:56:28;;;;;;;23.97;5.70;;;27.10;47.10;;;;;;5045222;28;20533;-65
2023/07/07 01:58:55;;;;;;;27.10;6.07;;;27.10;47.20;;;;;;5031139;28;20196;-65
2023/07/07 02:01:24;;;;;;;30.70;6.33;;;27.10;47.20;;;;;;5032101;28;20201;-66
2023/07/07 02:03:50;;;;;;;44.07;7.83;;;27.10;47.20;;;;;;5029544;28;20229;-65
2023/07/07 02:06:17;;;;;;;23.20;5.77;;;27.10;47.20;;;;;;5021930;28;20192;-67
2023/07/07 02:08:45;;;;;;;41.67;7.43;;;27.10;47.20;;;;;;5043467;28;20690;-66
2023/07/07 02:11:12;;;;;;;22.53;5.70;;;27.00;47.10;;;;;;5050746;28;20245;-67
2023/07/07 02:13:39;;;;;;;24.30;5.67;;;27.10;47.20;;;;;;5050396;28;20302;-65
2023/07/07 02:16:07;;;;;;;26.63;5.63;;;27.00;47.10;;;;;;5050935;28;20246;-68
2023/07/07 02:18:37;;;;;;;25.60;5.87;;;27.00;47.10;;;;;;5050165;28;20259;-66
2023/07/07 02:21:04;;;;;;;21.83;5.47;;;27.00;47.20;;;;;;5050994;28;20196;-66
2023/07/07 02:23:31;;;;;;;23.63;5.67;;;27.00;47.10;;;;;;5049553;28;20828;-67
2023/07/07 02:25:58;;;;;;;27.73;5.80;;;27.00;47.10;;;;;;5050698;28;20200;-70
2023/07/07 02:28:25;;;;;;;23.40;5.43;;;27.00;47.20;;;;;;5050293;28;20204;-68
2023/07/07 02:30:52;;;;;;;20.33;5.13;;;27.00;47.20;;;;;;5050678;28;20338;-69
2023/07/07 02:33:19;;;;;;;29.17;5.97;;;27.00;47.20;;;;;;5050281;28;20207;-69
2023/07/07 02:35:48;;;;;;;23.77;6.07;;;27.00;47.30;;;;;;5025362;28;20197;-66
2023/07/07 02:38:15;;;;;;;22.53;5.60;;;27.00;47.90;;;;;;5046061;28;20208;-70
2023/07/07 02:40:43;;;;;;;29.27;5.90;;;27.00;47.30;;;;;;5022517;28;20198;-66
2023/07/07 02:43:10;;;;;;;20.97;5.27;;;27.00;47.30;;;;;;5026046;28;20230;-65
2023/07/07 02:45:37;;;;;;;22.77;6.03;;;27.00;47.30;;;;;;5029879;28;20540;-65
2023/07/07 02:48:04;;;;;;;28.47;5.90;;;26.90;47.20;;;;;;5030316;28;20197;-65
2023/07/07 02:50:31;;;;;;;26.43;6.17;;;26.90;47.20;;;;;;5030153;28;20680;-65
2023/07/07 02:52:59;;;;;;;26.53;5.90;;;26.90;47.20;;;;;;5039040;28;20203;-65
2023/07/07 02:55:26;;;;;;;35.57;6.80;;;26.90;47.30;;;;;;5044768;28;20196;-65
2023/07/07 02:57:53;;;;;;;30.87;6.70;;;26.90;47.30;;;;;;5047355;28;20200;-68
2023/07/07 03:00:20;;;;;;;30.10;5.87;;;26.90;47.30;;;;;;5041460;28;20204;-67
2023/07/07 03:02:48;;;;;;;30.00;6.17;;;26.90;47.30;;;;;;5034813;28;20200;-68
2023/07/07 03:05:15;;;;;;;31.83;6.73;;;26.90;47.30;;;;;;5038170;28;20680;-69
2023/07/07 03:07:42;;;;;;;25.30;5.70;;;26.90;47.30;;;;;;5030281;28;20196;-65
2023/07/07 03:10:11;;;;;;;23.67;6.17;;;26.90;47.30;;;;;;5049126;28;20208;-67
2023/07/07 03:12:38;;;;;;;24.30;5.70;;;26.90;47.30;;;;;;5049924;28;20196;-65
2023/07/07 03:15:06;;;;;;;24.33;5.33;;;26.90;47.30;;;;;;5049640;28;20258;-66
2023/07/07 03:17:35;;;;;;;24.67;5.73;;;26.90;47.30;;;;;;5047131;28;20207;-71
2023/07/07 03:20:05;;;;;;;43.30;7.80;;;26.90;47.30;;;;;;5027936;28;20205;-65
2023/07/07 03:22:32;;;;;;;41.17;7.27;;;26.90;47.30;;;;;;5043717;28;20316;-66
2023/07/07 03:25:00;;;;;;;35.00;6.47;;;26.90;47.30;;;;;;5048478;28;20235;-69
2023/07/07 03:27:28;;;;;;;22.93;5.80;;;26.80;47.20;;;;;;5049531;28;20196;-65
2023/07/07 03:29:55;;;;;;;32.70;6.53;;;26.80;47.20;;;;;;5049548;28;20196;-69
2023/07/07 03:32:22;;;;;;;24.77;5.67;;;26.80;47.40;;;;;;5049382;28;20200;-69
2023/07/07 03:34:50;;;;;;;40.60;7.50;;;26.80;47.30;;;;;;5042654;28;20205;-65
2023/07/07 03:37:17;;;;;;;27.37;6.10;;;26.80;47.20;;;;;;5045563;28;20219;-65
2023/07/07 03:39:44;;;;;;;25.90;5.80;;;26.80;47.20;;;;;;5040655;28;20197;-70
2023/07/07 03:42:11;;;;;;;26.50;5.93;;;26.80;47.30;;;;;;5035705;28;20209;-66
2023/07/07 03:44:39;;;;;;;37.60;7.27;;;26.80;47.30;;;;;;5042495;28;20232;-65
2023/07/07 03:47:06;;;;;;;28.93;6.13;;;26.80;47.20;;;;;;5048864;28;20678;-67
2023/07/07 03:49:33;;;;;;;35.13;6.73;;;26.80;47.20;;;;;;5042662;28;20206;-69
2023/07/07 03:52:00;;;;;;;27.17;5.87;;;26.80;47.20;;;;;;5047488;28;20200;-65
2023/07/07 03:54:27;;;;;;;42.50;7.20;;;26.80;47.30;;;;;;5040227;28;20212;-65
2023/07/07 03:56:54;;;;;;;30.10;5.93;;;26.80;47.30;;;;;;5045868;28;20196;-65
2023/07/07 03:59:21;;;;;;;23.63;5.87;;;26.80;47.20;;;;;;5047700;28;20283;-70
2023/07/07 04:01:49;;;;;;;24.17;5.80;;;26.80;47.80;;;;;;5040308;28;20212;-71
2023/07/07 04:04:16;;;;;;;29.53;6.37;;;26.80;47.30;;;;;;5027792;28;20216;-69
2023/07/07 04:06:43;;;;;;;19.90;5.27;;;26.80;47.30;;;;;;5048178;28;20200;-69
2023/07/07 04:09:10;;;;;;;24.83;5.67;;;26.80;47.30;;;;;;5042381;28;20201;-71
2023/07/07 04:11:37;;;;;;;31.30;6.07;;;26.80;47.30;;;;;;5046295;28;20207;-65
2023/07/07 04:14:03;;;;;;;28.73;5.83;;;26.80;47.30;;;;;;5048594;28;20220;-65
2023/07/07 04:16:30;;;;;;;26.07;5.70;;;26.80;47.30;;;;;;5047512;28;20203;-68
2023/07/07 04:18:58;;;;;;;48.80;7.70;;;26.70;47.20;;;;;;5043585;28;20203;-66
2023/07/07 04:21:27;;;;;;;27.50;6.40;;;26.70;47.30;;;;;;5040962;28;20201;-66
2023/07/07 04:23:55;;;;;;;24.93;5.97;;;26.70;47.30;;;;;;5027053;28;20232;-65
2023/07/07 04:26:24;;;;;;;27.63;5.93;;;26.70;47.30;;;;;;5025429;28;20205;-68
2023/07/07 04:28:52;;;;;;;28.57;5.57;;;26.70;47.30;;;;;;5028404;28;20251;-67
2023/07/07 04:31:21;;;;;;;23.87;5.73;;;26.70;47.30;;;;;;5028398;28;20205;-68
2023/07/07 04:33:48;;;;;;;26.13;5.93;;;26.80;47.40;;;;;;5028767;28;20290;-68
2023/07/07 04:36:17;;;;;;;32.87;6.50;;;26.70;47.30;;;;;;5031341;28;20694;-65
2023/07/07 04:38:44;;;;;;;23.33;5.47;;;26.80;47.40;;;;;;5041400;28;20200;-65
2023/07/07 04:41:13;;;;;;;27.97;6.33;;;26.70;47.40;;;;;;5029170;28;20200;-65
2023/07/07 04:43:42;;;;;;;27.10;6.00;;;26.70;47.30;;;;;;5048306;28;20231;-66
2023/07/07 04:46:10;;;;;;;31.88;6.25;;;26.70;47.40;;;;;;5032977;28;20457;-68
2023/07/07 04:48:37;;;;;;;25.77;5.87;;;26.70;47.70;;;;;;5035378;28;20207;-67
2023/07/07 04:51:06;;;;;;;31.80;6.27;;;26.70;47.60;;;;;;5024243;28;20201;-68
2023/07/07 04:53:36;;;;;;;22.47;5.07;;;26.70;47.50;;;;;;5041640;28;20199;-68
2023/07/07 04:56:08;;;;;;;24.10;5.33;;;26.70;47.50;;;;;;5032195;28;20196;-64
2023/07/07 04:58:35;;;;;;;31.30;6.17;;;26.70;47.50;;;;;;5048333;28;20197;-67
2023/07/07 05:01:09;;;;;;;23.90;5.27;;;26.70;47.50;;;;;;5043282;28;20211;-65
2023/07/07 05:03:37;;;;;;;16.83;4.97;;;26.70;47.50;;;;;;5008591;28;20196;-71
2023/07/07 05:06:05;;;;;;;34.87;7.07;;;26.70;47.50;;;;;;5008085;28;20197;-66
2023/07/07 05:08:33;;;;;;;27.97;6.03;;;26.70;47.40;;;;;;5030573;28;20204;-65
2023/07/07 05:11:01;;;;;;;25.53;5.93;;;26.70;47.50;;;;;;5048255;28;20204;-66
2023/07/07 05:13:29;;;;;;;28.77;6.30;;;26.70;47.50;;;;;;5014413;28;20304;-64
2023/07/07 05:16:03;;;;;;;25.33;5.63;;;26.70;47.50;;;;;;5033388;28;20208;-64
2023/07/07 05:18:30;;;;;;;23.60;5.73;;;26.70;47.50;;;;;;5038531;28;20200;-67
2023/07/07 05:20:57;;;;;;;26.77;5.87;;;26.70;47.50;;;;;;5047659;28;20584;-64
2023/07/07 05:23:24;;;;;;;26.93;5.60;;;26.70;47.50;;;;;;5047836;28;20208;-66
2023/07/07 05:25:52;;;;;;;23.17;5.57;;;26.70;47.50;;;;;;5036659;28;20221;-64
2023/07/07 05:28:21;;;;;;;26.73;6.07;;;26.70;47.50;;;;;;5027891;28;20201;-64
2023/07/07 05:30:48;;;;;;;22.97;5.67;;;26.70;47.50;;;;;;5039596;28;20673;-66
2023/07/07 05:33:15;;;;;;;29.43;6.17;;;26.70;47.50;;;;;;5037518;28;20546;-64
2023/07/07 05:35:49;;;;;;;23.87;5.87;;;26.70;47.50;;;;;;5034464;28;20744;-66
2023/07/07 05:38:16;;;;;;;24.40;5.83;;;26.70;47.50;;;;;;5017623;28;20212;-64
2023/07/07 05:40:45;;;;;;;24.47;5.67;;;26.70;47.50;;;;;;5027497;28;20209;-68
2023/07/07 05:43:12;;;;;;;45.47;7.23;;;26.70;47.50;;;;;;5031757;28;20212;-64
2023/07/07 05:45:40;;;;;;;45.70;7.50;;;26.70;47.50;;;;;;5045141;28;20239;-66
2023/07/07 05:48:07;;;;;;;28.83;5.87;;;26.70;48.20;;;;;;5044908;28;20208;-67
2023/07/07 05:50:34;;;;;;;39.33;7.03;;;26.70;47.60;;;;;;5045928;28;20197;-66
2023/07/07 05:53:02;;;;;;;28.50;6.07;;;26.70;47.60;;;;;;5018238;28;20205;-64
2023/07/07 05:55:31;;;;;;;29.23;6.43;;;26.70;47.60;;;;;;5026954;28;20223;-63
2023/07/07 05:57:59;;;;;;;28.00;6.60;;;26.70;47.50;;;;;;5047147;28;20204;-64
2023/07/07 06:00:28;;;;;;;23.30;6.20;;;26.70;47.50;;;;;;5031007;28;20283;-66
2023/07/07 06:02:56;;;;;;;30.20;7.13;;;26.70;47.40;;;;;;5031244;28;20213;-63
2023/07/07 06:05:23;;;;;;;21.83;6.10;;;26.70;47.50;;;;;;5034579;28;20696;-65
2023/07/07 06:07:51;;;;;;;35.50;6.80;;;26.70;47.50;;;;;;5049363;28;20568;-64
2023/07/07 06:10:18;;;;;;;23.13;5.70;;;26.70;47.50;;;;;;5030466;28;20205;-64
2023/07/07 06:12:45;;;;;;;25.70;6.20;;;26.70;47.50;;;;;;5030802;28;20235;-65
2023/07/07 06:15:12;;;;;;;34.50;7.10;;;26.70;47.50;;;;;;5029097;28;20232;-64
2023/07/07 06:17:40;;;;;;;26.23;6.60;;;26.60;47.40;;;;;;5030720;28;20672;-67
2023/07/07 06:20:09;;;;;;;54.67;8.73;;;26.60;47.50;;;;;;5037321;28;20196;-65
2023/07/07 06:22:36;;;;;;;48.37;8.07;;;26.60;47.60;;;;;;5049489;28;20211;-64
2023/07/07 06:25:04;;;;;;;35.77;7.63;;;26.60;47.60;;;;;;5040959;28;20224;-64
2023/07/07 06:27:30;;;;;;;24.03;6.43;;;26.60;47.60;;;;;;5010733;28;20205;-65
2023/07/07 06:29:57;;;;;;;27.33;6.97;;;26.60;47.70;;;;;;5010565;28;20209;-65
2023/07/07 06:32:24;;;;;;;89.23;11.43;;;26.60;48.40;;;;;;5010026;28;20216;-63
2023/07/07 06:34:51;;;;;;;30.53;6.47;;;26.60;47.70;;;;;;5040466;28;20322;-65
2023/07/07 06:37:19;;;;;;;22.77;6.13;;;26.60;47.70;;;;;;5036609;28;20272;-64
2023/07/07 06:39:46;;;;;;;30.13;6.80;;;26.50;47.60;;;;;;5030380;28;20205;-64
2023/07/07 06:42:13;;;;;;;27.00;6.23;;;26.50;47.70;;;;;;5030383;28;20199;-64
2023/07/07 06:44:40;;;;;;;25.60;6.60;;;26.50;47.70;;;;;;5032943;28;20232;-67
2023/07/07 06:47:12;;;;;;;24.37;6.30;;;26.50;47.70;;;;;;5049848;28;20200;-64
2023/07/07 06:49:38;;;;;;;26.50;6.57;;;26.50;47.70;;;;;;5049996;28;20203;-65
2023/07/07 06:52:06;;;;;;;25.63;6.80;;;26.50;48.00;;;;;;5050394;28;20212;-68
2023/07/07 06:54:35;;;;;;;27.53;6.40;;;26.50;48.00;;;;;;5050300;28;20286;-64
2023/07/07 06:57:02;;;;;;;33.57;7.70;;;26.50;48.00;;;;;;5044317;28;20672;-64
2023/07/07 06:59:28;;;;;;;24.37;6.73;;;26.50;48.00;;;;;;5042722;28;20273;-64
2023/07/07 07:01:55;;;;;;;50.53;8.77;;;26.50;48.00;;;;;;5049278;28;20215;-65
2023/07/07 07:04:22;;;;;;;38.57;7.40;;;26.50;48.00;;;;;;5046979;28;20231;-65
2023/07/07 07:06:49;;;;;;;25.57;6.27;;;26.50;48.00;;;;;;5046053;28;20200;-64
2023/07/07 07:09:16;;;;;;;26.50;6.57;;;26.50;48.00;;;;;;5048856;28;20207;-67
2023/07/07 07:11:44;;;;;;;27.53;6.53;;;26.50;48.00;;;;;;5046981;28;20196;-64
2023/07/07 07:14:11;;;;;;;25.27;6.83;;;26.50;48.00;;;;;;5048200;28;20224;-66
2023/07/07 07:16:38;;;;;;;28.53;6.67;;;26.50;48.10;;;;;;5048603;28;20204;-64
2023/07/07 07:19:05;;;;;;;30.27;7.03;;;26.50;48.20;;;;;;5048713;28;20196;-68
2023/07/07 07:21:32;;;;;;;28.07;6.60;;;26.60;48.20;;;;;;5049264;28;20949;-66
2023/07/07 07:23:59;;;;;;;25.33;6.17;;;26.60;48.20;;;;;;5041486;28;20193;-65
2023/07/07 07:26:26;;;;;;;31.50;7.20;;;26.60;48.20;;;;;;5045040;28;20224;-65
2023/07/07 07:28:54;;;;;;;25.63;6.30;;;26.60;48.50;;;;;;5033042;28;20201;-64
2023/07/07 07:31:21;;;;;;;24.57;6.20;;;26.60;48.20;;;;;;5029157;28;20650;-64
2023/07/07 07:33:52;;;;;;;24.57;6.47;;;26.60;48.30;;;;;;5038072;28;20208;-64
2023/07/07 07:36:19;;;;;;;34.00;6.63;;;26.60;48.40;;;;;;5031862;28;20252;-65
2023/07/07 07:38:46;;;;;;;23.00;6.17;;;26.70;48.70;;;;;;5029489;28;20197;-64
2023/07/07 07:41:13;;;;;;;31.07;6.93;;;26.70;48.30;;;;;;5029608;28;20215;-64
2023/07/07 07:43:40;;;;;;;20.40;5.87;;;26.70;48.30;;;;;;5029437;28;20660;-64
2023/07/07 07:46:09;;;;;;;32.97;6.80;;;26.80;48.30;;;;;;5029085;28;20243;-64
2023/07/07 07:48:36;;;;;;;20.77;5.50;;;26.70;48.40;;;;;;5039572;28;20211;-66
2023/07/07 07:51:02;;;;;;;26.53;6.40;;;26.80;48.50;;;;;;5047912;28;20346;-65
2023/07/07 07:53:29;;;;;;;30.00;6.57;;;26.80;48.40;;;;;;5046387;28;20204;-67
2023/07/07 07:55:56;;;;;;;29.87;6.67;;;26.80;48.40;;;;;;5049806;28;20180;-64
2023/07/07 07:58:23;;;;;;;28.93;6.30;;;26.80;48.40;;;;;;5049269;28;20726;-66
2023/07/07 08:00:50;;;;;;;28.53;6.60;;;26.80;48.40;;;;;;5049165;28;20211;-67
2023/07/07 08:03:18;;;;;;;30.23;7.00;;;26.90;48.40;;;;;;5049182;28;20192;-65
2023/07/07 08:05:45;;;;;;;19.27;6.23;;;26.90;48.60;;;;;;5038100;28;20572;-64
2023/07/07 08:08:12;;;;;;;30.53;6.93;;;26.90;48.50;;;;;;5040747;28;20200;-65
2023/07/07 08:10:39;;;;;;;31.07;6.80;;;27.00;48.50;;;;;;5037927;28;20219;-65
2023/07/07 08:13:06;;;;;;;30.57;6.63;;;27.00;48.60;;;;;;5048246;28;20645;-65
2023/07/07 08:15:33;;;;;;;26.47;6.33;;;27.00;48.60;;;;;;5048655;28;20211;-67
2023/07/07 08:18:00;;;;;;;26.37;5.97;;;27.00;48.60;;;;;;5048710;28;20208;-65
2023/07/07 08:20:30;;;;;;;29.90;7.00;;;27.00;48.60;;;;;;5044363;28;20200;-65
2023/07/07 08:22:57;;;;;;;25.70;6.57;;;27.10;48.60;;;;;;5048369;28;20569;-65
2023/07/07 08:25:24;;;;;;;31.40;6.90;;;27.10;48.50;;;;;;5048724;28;20234;-66
2023/07/07 08:27:53;;;;;;;24.97;6.10;;;27.10;48.50;;;;;;5038784;28;20207;-65
2023/07/07 08:30:20;;;;;;;21.50;5.77;;;27.20;48.50;;;;;;5047850;28;20274;-64
2023/07/07 08:32:47;;;;;;;24.30;6.20;;;27.20;48.50;;;;;;5048229;28;20236;-64
2023/07/07 08:35:14;;;;;;;26.60;6.93;;;27.20;48.50;;;;;;5032883;28;20210;-64
2023/07/07 08:37:42;;;;;;;30.23;6.37;;;27.20;48.30;;;;;;5047453;28;20273;-64
2023/07/07 08:40:14;;;;;;;20.33;5.67;;;27.20;48.30;;;;;;5048374;28;20299;-65
2023/07/07 08:42:42;;;;;;;32.93;6.97;;;27.20;48.20;;;;;;5048008;28;20280;-64
2023/07/07 08:45:14;;;;;;;73.07;10.27;;;27.30;48.30;;;;;;5032563;28;20610;-65
2023/07/07 08:47:52;;;;;;;34.10;6.93;;;27.30;48.20;;;;;;5033435;28;20667;-70
2023/07/07 08:50:24;;;;;;;34.83;7.20;;;27.30;48.20;;;;;;5047368;28;20206;-66
2023/07/07 08:53:02;;;;;;;47.80;7.53;;;27.30;48.10;;;;;;5043073;28;20204;-65
2023/07/07 08:55:48;;;;;;;32.57;6.90;;;27.40;48.20;;;;;;5033841;28;20294;-64
2023/07/07 08:58:21;;;;;;;23.63;5.93;;;27.30;47.80;;;;;;5044411;28;20204;-68
2023/07/07 09:00:55;;;;;;;32.33;6.73;;;27.40;47.80;;;;;;5047890;28;20180;-64
2023/07/07 09:03:41;;;;;;;26.30;6.27;;;27.40;47.90;;;;;;5047489;28;20210;-64
2023/07/07 09:06:19;;;;;;;29.87;6.63;;;27.40;47.80;;;;;;5047561;28;20228;-69
2023/07/07 09:08:54;;;;;;;27.13;7.57;;;27.50;47.60;;;;;;5037090;28;20202;-65
2023/07/07 09:11:31;;;;;;;29.73;6.47;;;27.50;47.40;;;;;;5045375;28;20211;-64
2023/07/07 09:13:59;;;;;;;30.40;6.83;;;27.50;47.60;;;;;;5040073;28;20227;-65
2023/07/07 09:16:29;;;;;;;41.80;7.80;;;27.50;47.70;;;;;;5044809;28;20204;-64
2023/07/07 09:19:03;;;;;;;24.43;6.07;;;27.50;47.60;;;;;;5038266;28;20267;-65
2023/07/07 09:21:36;;;;;;;43.67;7.77;;;27.50;47.60;;;;;;5038298;28;20208;-65
2023/07/07 09:24:13;;;;;;;28.73;6.27;;;27.60;47.70;;;;;;5047769;28;20208;-66
2023/07/07 09:26:41;;;;;;;26.60;6.17;;;27.60;47.30;;;;;;5047658;28;20223;-65
2023/07/07 09:29:22;;;;;;;34.30;7.03;;;27.60;47.10;;;;;;5042118;28;20194;-66
2023/07/07 09:31:49;;;;;;;27.17;6.27;;;27.70;46.80;;;;;;5010484;28;20201;-68
2023/07/07 09:34:16;;;;;;;31.33;6.90;;;27.70;46.80;;;;;;5031076;28;20264;-68
2023/07/07 09:36:49;;;;;;;22.80;6.13;;;27.70;46.70;;;;;;5031237;28;20213;-66
2023/07/07 09:39:33;;;;;;;30.77;7.20;;;27.70;46.50;;;;;;5031192;28;20203;-65
2023/07/07 09:42:11;;;;;;;56.93;8.83;;;27.70;45.90;;;;;;5029139;28;20213;-65
2023/07/07 09:44:54;;;;;;;32.60;6.80;;;27.80;46.30;;;;;;5049442;28;20204;-65
2023/07/07 09:47:26;;;;;;;27.00;6.60;;;27.80;46.90;;;;;;5048777;28;20205;-66
2023/07/07 09:50:00;;;;;;;37.50;7.23;;;27.80;46.30;;;;;;5047595;28;20198;-68
2023/07/07 09:52:39;;;;;;;42.00;7.60;;;27.80;46.30;;;;;;5048092;28;20196;-65
2023/07/07 09:55:15;;;;;;;36.90;7.53;;;27.90;45.80;;;;;;5051034;28;20203;-65
2023/07/07 09:57:47;;;;;;;27.00;6.20;;;27.90;46.00;;;;;;5048049;28;20717;-65
2023/07/07 10:00:18;;;;;;;26.33;5.80;;;27.90;46.10;;;;;;5050795;28;20208;-66
2023/07/07 10:02:45;;;;;;;25.87;6.50;;;28.00;46.10;;;;;;5033623;28;20232;-66
2023/07/07 10:05:20;;;;;;;26.83;6.33;;;28.00;46.00;;;;;;5044425;28;20204;-65
2023/07/07 10:07:47;;;;;;;31.53;6.23;;;28.00;46.20;;;;;;5050950;28;20208;-65
2023/07/07 10:10:15;;;;;;;44.30;8.00;;;28.00;46.00;;;;;;5043137;28;20200;-65
2023/07/07 10:12:43;;;;;;;26.53;5.97;;;28.10;45.90;;;;;;5050352;28;20204;-67
2023/07/07 10:15:36;;;;;;;24.40;6.33;;;28.20;46.30;;;;;;5050859;28;20586;-64
2023/07/07 10:18:12;;;;;;;36.67;7.43;;;28.20;45.50;;;;;;5043819;28;20211;-65
2023/07/07 10:20:39;;;;;;;28.30;6.37;;;28.30;45.60;;;;;;5035492;28;20761;-65
2023/07/07 10:23:10;;;;;;;38.77;7.30;;;28.30;45.60;;;;;;5050649;28;20208;-65
2023/07/07 10:25:40;;;;;;;30.27;7.47;;;28.40;45.70;;;;;;5050076;28;20220;-65
2023/07/07 10:28:10;;;;;;;39.77;7.87;;;28.40;45.80;;;;;;5050121;28;20200;-67
2023/07/07 10:30:38;;;;;;;23.83;5.97;;;28.50;45.70;;;;;;5045749;28;20197;-65
2023/07/07 10:33:06;;;;;;;22.33;5.63;;;28.50;45.80;;;;;;5030942;28;20227;-65
2023/07/07 10:35:32;;;;;;;28.63;6.60;;;28.60;45.50;;;;;;5029826;28;20216;-68
2023/07/07 10:38:03;;;;;;;27.40;6.57;;;28.60;45.40;;;;;;5046838;28;20212;-65
2023/07/07 10:40:31;;;;;;;22.13;5.73;;;28.70;45.40;;;;;;5050014;28;20231;-65
2023/07/07 10:42:59;;;;;;;19.60;5.63;;;28.80;45.20;;;;;;5047117;28;20218;-65
2023/07/07 10:45:26;;;;;;;24.60;6.20;;;28.80;45.00;;;;;;5049207;28;20196;-66
2023/07/07 10:47:53;;;;;;;21.30;5.77;;;28.90;45.00;;;;;;5050624;28;20192;-65
2023/07/07 10:50:22;;;;;;;24.70;6.03;;;29.10;45.40;;;;;;5050038;28;20308;-66
2023/07/07 10:53:15;;;;;;;29.27;6.13;;;29.20;45.30;;;;;;5042021;28;20211;-66
2023/07/07 10:56:07;;;;;;;24.30;5.50;;;29.30;45.50;;;;;;5049529;28;20208;-67
2023/07/07 10:58:51;;;;;;;25.17;5.83;;;29.50;45.20;;;;;;5028492;28;20211;-65
2023/07/07 11:01:29;;;;;;;27.17;6.20;;;29.60;44.60;;;;;;5030010;28;20201;-64
2023/07/07 11:04:28;;;;;;;23.10;5.63;;;29.80;44.40;;;;;;5020055;28;20197;-63
2023/07/07 11:07:05;;;;;;;25.67;6.03;;;30.00;45.20;;;;;;4993989;28;20268;-66
2023/07/07 11:09:49;;;;;;;22.45;5.75;;;30.20;44.60;;;;;;5022481;28;20213;-63
2023/07/07 11:12:28;;;;;;;29.87;6.60;;;30.40;44.70;;;;;;5029507;28;20207;-64
2023/07/07 11:15:07;;;;;;;16.30;5.03;;;30.50;44.10;;;;;;5035041;28;20216;-62
2023/07/07 11:17:45;;;;;;;22.63;6.10;;;30.60;44.40;;;;;;5032649;28;20568;-65
2023/07/07 11:20:31;;;;;;;24.08;5.90;;;30.70;45.00;;;;;;5035192;28;20226;-64
2023/07/07 11:23:34;;;;;;;39.22;7.35;;;30.80;44.70;;;;;;5031958;28;20201;-66
2023/07/07 11:26:11;;;;;;;54.60;8.73;;;30.90;44.70;;;;;;5006879;28;20225;-66
2023/07/07 11:28:47;;;;;;;24.37;5.60;;;30.90;43.60;;;;;;5045379;28;20199;-66
2023/07/07 11:31:36;;;;;;;34.40;7.57;;;30.90;44.00;;;;;;5026677;28;20210;-64
2023/07/07 11:34:16;;;;;;;27.70;6.30;;;30.90;44.00;;;;;;5029595;28;20691;-63
2023/07/07 11:37:07;;;;;;;20.40;5.67;;;30.90;44.00;;;;;;5031772;28;20208;-66
2023/07/07 11:40:07;;;;;;;27.87;6.50;;;30.90;44.10;;;;;;5049314;28;20683;-65
2023/07/07 11:42:52;;;;;;;27.70;6.03;;;30.90;43.50;;;;;;5042285;28;20208;-65
2023/07/07 11:45:28;;;;;;;24.85;6.18;;;30.90;44.00;;;;;;5048362;28;20196;-65
2023/07/07 11:48:19;;;;;;;24.05;6.00;;;30.80;44.20;;;;;;5035614;28;20575;-66
2023/07/07 11:51:02;;;;;;;26.77;6.17;;;30.90;44.30;;;;;;5009400;28;20196;-67
2023/07/07 11:53:51;;;;;;;26.70;6.40;;;30.90;44.30;;;;;;5038416;28;20207;-64
2023/07/07 11:56:33;;;;;;;24.05;6.28;;;30.80;43.40;;;;;;5048858;28;20732;-64
2023/07/07 11:59:09;;;;;;;29.57;6.83;;;30.80;44.00;;;;;;5047539;28;20208;-63
2023/07/07 12:01:41;;;;;;;34.97;7.05;;;30.80;43.50;;;;;;5045307;28;20212;-64
2023/07/07 12:04:16;;;;;;;26.97;6.50;;;30.80;44.00;;;;;;5048949;28;20667;-66
2023/07/07 12:06:46;;;;;;;27.35;6.15;;;30.90;44.30;;;;;;5030569;28;20239;-64
2023/07/07 12:09:19;;;;;;;23.57;5.93;;;30.80;44.00;;;;;;5035371;28;20199;-62
2023/07/07 12:11:58;;;;;;;35.05;6.78;;;30.90;43.80;;;;;;5046289;28;20192;-65
2023/07/07 12:14:35;;;;;;;33.95;7.20;;;30.80;43.70;;;;;;5027214;28;20279;-65
2023/07/07 12:17:04;;;;;;;39.33;7.33;;;30.80;43.40;;;;;;5044255;28;20652;-65
2023/07/07 12:19:40;;;;;;;25.10;6.57;;;30.80;43.10;;;;;;5035994;28;20212;-61
2023/07/07 12:22:14;;;;;;;32.90;7.47;;;30.80;42.50;;;;;;5046066;28;20207;-62
2023/07/07 12:24:47;;;;;;;33.65;7.05;;;30.80;42.90;;;;;;5028621;28;20207;-65
2023/07/07 12:27:18;;;;;;;21.20;5.73;;;30.70;43.20;;;;;;5028314;28;20236;-64
2023/07/07 12:29:48;;;;;;;24.40;6.18;;;30.70;43.10;;;;;;5029726;28;20538;-63
2023/07/07 12:32:15;;;;;;;25.02;6.50;;;30.70;43.50;;;;;;5015110;28;20215;-67
2023/07/07 12:34:49;;;;;;;29.92;6.80;;;30.70;43.10;;;;;;5037124;28;20665;-63
2023/07/07 12:37:18;;;;;;;25.75;6.68;;;30.70;42.70;;;;;;5028234;28;20720;-63
2023/07/07 12:39:58;;;;;;;31.87;6.73;;;30.70;43.00;;;;;;5023782;28;20232;-66
2023/07/07 12:42:29;;;;;;;33.55;7.32;;;30.70;43.30;;;;;;5018242;28;21048;-63
2023/07/07 12:44:57;;;;;;;23.88;6.15;;;30.70;43.60;;;;;;5043267;28;20195;-64
2023/07/07 12:47:31;;;;;;;22.48;5.90;;;30.70;43.80;;;;;;5039664;28;20698;-64
2023/07/07 12:50:02;;;;;;;56.87;9.03;;;30.70;44.00;;;;;;5027203;28;20220;-65
2023/07/07 12:52:37;;;;;;;25.73;6.57;;;30.70;43.90;;;;;;5047962;28;20192;-64